Midnight Dream — YJWE4 — position and weather

sailwx.info

Track history (hours):
 
Tides and Currents Weather Stations Pressure Air Temp Water Temp Dewpoint Dewpoint Depression Visibility Wind Speed Wind Dir Waves Ship Positions

Midnight Dream

Last reported at 2017-Sep-21 17:37 UTC. Time now 2017-Sep-25 13:32 UTC.
Position N 17°16' W 062°44'.

Length 90 m; draft 14.5 m.

Type: Cargo ship. MMSI: 577368000.

Date/timePositionNaut miles runAvg speedWind from/ knotsBaromVisibWave heightAir tempDewpointWater temp
2017-Sep-21 17:37N 17°16' W 062°44'35 5.8
2017-Sep-21 11:28N 16°51' W 062°18'511.3
2017-Sep-21 11:00N 16°49' W 062°13'1 1.2
2017-Sep-21 10:31N 16°49' W 062°13'5 9.5
2017-Sep-21 10:01N 16°53' W 062°10'510.1
2017-Sep-21 09:30N 16°57' W 062°07'510.3
2017-Sep-21 09:00N 17°01' W 062°03'611.0
2017-Sep-21 08:31N 17°04' W 061°59'611.2
2017-Sep-21 08:01N 17°08' W 061°54'3 6.1
2017-Sep-21 07:31N 17°07' W 061°51'0 0.2
2017-Sep-21 07:00N 17°07' W 061°51'0 0.0
2017-Sep-21 06:30N 17°07' W 061°51'0 0.0
2017-Sep-21 06:00N 17°07' W 061°51'0 0.0
2017-Sep-21 05:31N 17°07' W 061°51'0 0.0
2017-Sep-21 05:01N 17°07' W 061°51'0 0.0
2017-Sep-21 04:30N 17°07' W 061°51'0 0.0
2017-Sep-21 04:01N 17°07' W 061°51'0 0.0
2017-Sep-21 03:31N 17°07' W 061°51'0 0.0
2017-Sep-21 03:01N 17°07' W 061°51'0 0.0
2017-Sep-21 02:31N 17°07' W 061°51'0 0.0
2017-Sep-21 02:01N 17°07' W 061°51'0 0.0
2017-Sep-21 01:30N 17°07' W 061°51'0 0.0
2017-Sep-21 01:01N 17°07' W 061°51'  
2017-Sep-15 05:38N 17°26' W 062°39'211.8
2017-Sep-15 05:30N 17°26' W 062°38'611.7
2017-Sep-15 04:59N 17°23' W 062°32'511.4
2017-Sep-15 04:30N 17°21' W 062°27'611.2
2017-Sep-15 04:00N 17°19' W 062°21'611.1
2017-Sep-15 03:30N 17°17' W 062°16'611.5
2017-Sep-15 03:00N 17°15' W 062°10'611.7
2017-Sep-15 02:30N 17°13' W 062°05'611.5
2017-Sep-15 02:00N 17°10' W 061°59'611.5
2017-Sep-15 01:30N 17°08' W 061°54'2 4.9
2017-Sep-15 01:00N 17°07' W 061°51'0 0.0
2017-Sep-15 00:30N 17°07' W 061°51'0 0.0
2017-Sep-15 00:00N 17°07' W 061°51'0 0.0
2017-Sep-14 23:30N 17°07' W 061°51'0 0.0
2017-Sep-14 23:00N 17°07' W 061°51'0 0.0
2017-Sep-14 22:30N 17°07' W 061°51'0 0.0
2017-Sep-14 22:00N 17°07' W 061°51'0 0.0
2017-Sep-14 21:30N 17°07' W 061°51'0 0.0
2017-Sep-14 21:00N 17°07' W 061°51'0 0.0
2017-Sep-14 20:30N 17°07' W 061°51'3 5.6
2017-Sep-14 20:00N 17°08' W 061°54'612.5
2017-Sep-14 19:30N 17°04' W 061°59'612.5
2017-Sep-14 19:00N 16°60' W 062°03'611.7
2017-Sep-14 18:30N 16°55' W 062°08'612.2
2017-Sep-14 18:00N 16°51' W 062°12'3 5.3
2017-Sep-14 17:30N 16°48' W 062°12'0 0.0
2017-Sep-14 17:00N 16°48' W 062°12'2 4.2
2017-Sep-14 16:30N 16°49' W 062°14'612.5
2017-Sep-14 15:59N 16°53' W 062°20'612.3
2017-Sep-14 15:30N 16°56' W 062°25'26 7.6
2017-Sep-14 12:05N 17°16' W 062°43'  
2017-Sep-12 06:09N 17°54' W 065°51'211.5
2017-Sep-12 05:58N 17°53' W 065°53'511.4
2017-Sep-12 05:31N 17°51' W 065°58'611.4
2017-Sep-12 05:00N 17°49' W 066°04'611.2
2017-Sep-12 04:30N 17°49' W 066°10'611.4
2017-Sep-12 04:00N 17°49' W 066°16'611.3
2017-Sep-12 03:30N 17°49' W 066°22'611.3
2017-Sep-12 03:00N 17°50' W 066°28'511.0
2017-Sep-12 02:30N 17°51' W 066°33'611.1
2017-Sep-12 02:00N 17°54' W 066°38'611.1
2017-Sep-12 01:30N 17°56' W 066°44'3 6.0
2017-Sep-12 00:56N 17°59' W 066°46'0 0.0
2017-Sep-11 22:50N 17°59' W 066°46'0 0.0
2017-Sep-11 21:26N 17°59' W 066°46'0 0.0
2017-Sep-11 20:56N 17°59' W 066°46'0 0.0
2017-Sep-11 20:26N 17°59' W 066°46'0 0.0
2017-Sep-11 19:56N 17°59' W 066°46'0 0.0
2017-Sep-11 19:20N 17°59' W 066°46'0 0.0
2017-Sep-11 18:56N 17°59' W 066°46'0 0.0
2017-Sep-11 18:20N 17°59' W 066°46'0 0.0
2017-Sep-11 17:56N 17°59' W 066°46'  
Track history (hours):
 
Tides and Currents Weather Stations Pressure Air Temp Water Temp Dewpoint Dewpoint Depression Visibility Wind Speed Wind Dir Waves Ship Positions

Midnight Dream

Last reported at 2017-Sep-21 17:37 UTC. Time now 2017-Sep-25 13:33 UTC.
Position N 17°16' W 062°44'.

Length 90 m; draft 14.5 m.

Type: Cargo ship. MMSI: 577368000.

Date/timePositionNaut miles runAvg speedWind from/ knotsBaromVisibWave heightAir tempDewpointWater temp
2017-Sep-21 17:37N 17°16' W 062°44'35 5.8
2017-Sep-21 11:28N 16°51' W 062°18'511.3
2017-Sep-21 11:00N 16°49' W 062°13'1 1.2
2017-Sep-21 10:31N 16°49' W 062°13'5 9.5
2017-Sep-21 10:01N 16°53' W 062°10'510.1
2017-Sep-21 09:30N 16°57' W 062°07'510.3
2017-Sep-21 09:00N 17°01' W 062°03'611.0
2017-Sep-21 08:31N 17°04' W 061°59'611.2
2017-Sep-21 08:01N 17°08' W 061°54'3 6.1
2017-Sep-21 07:31N 17°07' W 061°51'0 0.2
2017-Sep-21 07:00N 17°07' W 061°51'0 0.0
2017-Sep-21 06:30N 17°07' W 061°51'0 0.0
2017-Sep-21 06:00N 17°07' W 061°51'0 0.0
2017-Sep-21 05:31N 17°07' W 061°51'0 0.0
2017-Sep-21 05:01N 17°07' W 061°51'0 0.0
2017-Sep-21 04:30N 17°07' W 061°51'0 0.0
2017-Sep-21 04:01N 17°07' W 061°51'0 0.0
2017-Sep-21 03:31N 17°07' W 061°51'0 0.0
2017-Sep-21 03:01N 17°07' W 061°51'0 0.0
2017-Sep-21 02:31N 17°07' W 061°51'0 0.0
2017-Sep-21 02:01N 17°07' W 061°51'0 0.0
2017-Sep-21 01:30N 17°07' W 061°51'0 0.0
2017-Sep-21 01:01N 17°07' W 061°51'  
2017-Sep-15 05:38N 17°26' W 062°39'211.8
2017-Sep-15 05:30N 17°26' W 062°38'611.7
2017-Sep-15 04:59N 17°23' W 062°32'511.4
2017-Sep-15 04:30N 17°21' W 062°27'611.2
2017-Sep-15 04:00N 17°19' W 062°21'611.1
2017-Sep-15 03:30N 17°17' W 062°16'611.5
2017-Sep-15 03:00N 17°15' W 062°10'611.7
2017-Sep-15 02:30N 17°13' W 062°05'611.5
2017-Sep-15 02:00N 17°10' W 061°59'611.5
2017-Sep-15 01:30N 17°08' W 061°54'2 4.9
2017-Sep-15 01:00N 17°07' W 061°51'0 0.0
2017-Sep-15 00:30N 17°07' W 061°51'0 0.0
2017-Sep-15 00:00N 17°07' W 061°51'0 0.0
2017-Sep-14 23:30N 17°07' W 061°51'0 0.0
2017-Sep-14 23:00N 17°07' W 061°51'0 0.0
2017-Sep-14 22:30N 17°07' W 061°51'0 0.0
2017-Sep-14 22:00N 17°07' W 061°51'0 0.0
2017-Sep-14 21:30N 17°07' W 061°51'0 0.0
2017-Sep-14 21:00N 17°07' W 061°51'0 0.0
2017-Sep-14 20:30N 17°07' W 061°51'3 5.6
2017-Sep-14 20:00N 17°08' W 061°54'612.5
2017-Sep-14 19:30N 17°04' W 061°59'612.5
2017-Sep-14 19:00N 16°60' W 062°03'611.7
2017-Sep-14 18:30N 16°55' W 062°08'612.2
2017-Sep-14 18:00N 16°51' W 062°12'3 5.3
2017-Sep-14 17:30N 16°48' W 062°12'0 0.0
2017-Sep-14 17:00N 16°48' W 062°12'2 4.2
2017-Sep-14 16:30N 16°49' W 062°14'612.5
2017-Sep-14 15:59N 16°53' W 062°20'612.3
2017-Sep-14 15:30N 16°56' W 062°25'26 7.6
2017-Sep-14 12:05N 17°16' W 062°43'  
2017-Sep-12 06:09N 17°54' W 065°51'211.5
2017-Sep-12 05:58N 17°53' W 065°53'511.4
2017-Sep-12 05:31N 17°51' W 065°58'611.4
2017-Sep-12 05:00N 17°49' W 066°04'611.2
2017-Sep-12 04:30N 17°49' W 066°10'611.4
2017-Sep-12 04:00N 17°49' W 066°16'611.3
2017-Sep-12 03:30N 17°49' W 066°22'611.3
2017-Sep-12 03:00N 17°50' W 066°28'511.0
2017-Sep-12 02:30N 17°51' W 066°33'611.1
2017-Sep-12 02:00N 17°54' W 066°38'611.1
2017-Sep-12 01:30N 17°56' W 066°44'3 6.0
2017-Sep-12 00:56N 17°59' W 066°46'0 0.0
2017-Sep-11 22:50N 17°59' W 066°46'0 0.0
2017-Sep-11 21:26N 17°59' W 066°46'0 0.0
2017-Sep-11 20:56N 17°59' W 066°46'0 0.0
2017-Sep-11 20:26N 17°59' W 066°46'0 0.0
2017-Sep-11 19:56N 17°59' W 066°46'0 0.0
2017-Sep-11 19:20N 17°59' W 066°46'0 0.0
2017-Sep-11 18:56N 17°59' W 066°46'0 0.0
2017-Sep-11 18:20N 17°59' W 066°46'0 0.0
2017-Sep-11 17:56N 17°59' W 066°46'  

Dump ship's entire track history